sensor_id;sensor_type;location;lat;lon;timestamp;pressure;altitude;pressure_sealevel;temperature;humidity
6851;BME280;3464;42.728;23.296;2023-01-30T00:00:50;95548.28;;;6.49;55.54
6851;BME280;3464;42.728;23.296;2023-01-30T00:03:16;95543.50;;;6.73;55.27
6851;BME280;3464;42.728;23.296;2023-01-30T00:05:42;95536.20;;;6.65;55.57
6851;BME280;3464;42.728;23.296;2023-01-30T00:08:09;95536.50;;;6.46;55.89
6851;BME280;3464;42.728;23.296;2023-01-30T00:10:35;95536.06;;;5.90;57.11
6851;BME280;3464;42.728;23.296;2023-01-30T00:13:03;95540.62;;;6.02;57.43
6851;BME280;3464;42.728;23.296;2023-01-30T00:15:30;95540.72;;;6.06;57.45
6851;BME280;3464;42.728;23.296;2023-01-30T00:18:04;95532.59;;;6.12;57.22
6851;BME280;3464;42.728;23.296;2023-01-30T00:20:44;95540.84;;;6.38;57.10
6851;BME280;3464;42.728;23.296;2023-01-30T00:23:11;95534.85;;;6.32;56.48
6851;BME280;3464;42.728;23.296;2023-01-30T00:25:37;95539.44;;;6.18;56.96
6851;BME280;3464;42.728;23.296;2023-01-30T00:28:04;95542.87;;;5.94;57.31
6851;BME280;3464;42.728;23.296;2023-01-30T00:30:31;95540.39;;;6.22;56.79
6851;BME280;3464;42.728;23.296;2023-01-30T00:32:57;95537.77;;;6.61;55.84
6851;BME280;3464;42.728;23.296;2023-01-30T00:35:25;95529.69;;;6.86;55.54
6851;BME280;3464;42.728;23.296;2023-01-30T00:37:51;95529.02;;;6.62;55.73
6851;BME280;3464;42.728;23.296;2023-01-30T00:40:18;95522.11;;;6.68;55.52
6851;BME280;3464;42.728;23.296;2023-01-30T00:42:45;95517.28;;;6.75;55.81
6851;BME280;3464;42.728;23.296;2023-01-30T00:45:17;95521.63;;;6.36;56.09
6851;BME280;3464;42.728;23.296;2023-01-30T00:47:49;95513.81;;;6.84;55.98
6851;BME280;3464;42.728;23.296;2023-01-30T00:50:16;95510.97;;;6.88;55.65
6851;BME280;3464;42.728;23.296;2023-01-30T00:52:42;95512.88;;;6.50;56.23
6851;BME280;3464;42.728;23.296;2023-01-30T00:55:09;95512.53;;;6.69;55.93
6851;BME280;3464;42.728;23.296;2023-01-30T00:57:36;95511.23;;;6.82;55.82
6851;BME280;3464;42.728;23.296;2023-01-30T01:00:03;95513.12;;;6.90;55.38
6851;BME280;3464;42.728;23.296;2023-01-30T01:02:30;95512.93;;;6.99;55.63
6851;BME280;3464;42.728;23.296;2023-01-30T01:04:57;95514.85;;;6.77;55.38
6851;BME280;3464;42.728;23.296;2023-01-30T01:07:23;95510.11;;;6.26;56.41
6851;BME280;3464;42.728;23.296;2023-01-30T01:09:50;95505.52;;;6.86;55.67
6851;BME280;3464;42.728;23.296;2023-01-30T01:12:18;95511.70;;;6.83;55.50
6851;BME280;3464;42.728;23.296;2023-01-30T01:14:45;95511.06;;;6.45;56.20
6851;BME280;3464;42.728;23.296;2023-01-30T01:17:12;95516.84;;;6.29;56.37
6851;BME280;3464;42.728;23.296;2023-01-30T01:19:42;95504.93;;;6.80;55.69
6851;BME280;3464;42.728;23.296;2023-01-30T01:22:08;95508.56;;;6.60;55.94
6851;BME280;3464;42.728;23.296;2023-01-30T01:24:35;95504.94;;;6.35;56.83
6851;BME280;3464;42.728;23.296;2023-01-30T01:27:01;95501.02;;;6.43;56.31
6851;BME280;3464;42.728;23.296;2023-01-30T01:29:28;95498.35;;;6.38;56.38
6851;BME280;3464;42.728;23.296;2023-01-30T01:31:56;95501.20;;;6.49;56.07
6851;BME280;3464;42.728;23.296;2023-01-30T01:34:21;95489.08;;;6.65;55.94
6851;BME280;3464;42.728;23.296;2023-01-30T01:36:48;95497.00;;;6.20;56.24
6851;BME280;3464;42.728;23.296;2023-01-30T01:39:16;95495.03;;;6.24;56.56
6851;BME280;3464;42.728;23.296;2023-01-30T01:41:43;95491.75;;;6.26;56.71
6851;BME280;3464;42.728;23.296;2023-01-30T01:44:10;95492.75;;;6.02;56.99
6851;BME280;3464;42.728;23.296;2023-01-30T01:46:42;95496.63;;;6.07;56.89
6851;BME280;3464;42.728;23.296;2023-01-30T01:49:12;95498.23;;;5.78;57.49
6851;BME280;3464;42.728;23.296;2023-01-30T01:51:39;95494.98;;;5.93;57.30
6851;BME280;3464;42.728;23.296;2023-01-30T01:54:08;95502.09;;;5.95;57.06
6851;BME280;3464;42.728;23.296;2023-01-30T01:56:36;95498.30;;;6.21;56.35
6851;BME280;3464;42.728;23.296;2023-01-30T01:59:04;95491.06;;;6.61;56.13
6851;BME280;3464;42.728;23.296;2023-01-30T02:01:29;95493.33;;;6.08;56.72
6851;BME280;3464;42.728;23.296;2023-01-30T02:03:57;95494.34;;;6.59;56.27
6851;BME280;3464;42.728;23.296;2023-01-30T02:06:22;95500.34;;;7.63;54.46
6851;BME280;3464;42.728;23.296;2023-01-30T02:08:49;95493.38;;;7.17;54.27
6851;BME280;3464;42.728;23.296;2023-01-30T02:11:21;95497.83;;;6.34;55.88
6851;BME280;3464;42.728;23.296;2023-01-30T02:13:45;95498.39;;;6.25;56.46
6851;BME280;3464;42.728;23.296;2023-01-30T02:16:12;95490.89;;;6.39;56.15
6851;BME280;3464;42.728;23.296;2023-01-30T02:18:39;95486.38;;;6.42;55.81
6851;BME280;3464;42.728;23.296;2023-01-30T02:31:50;95486.96;;;6.94;54.92
6851;BME280;3464;42.728;23.296;2023-01-30T02:34:34;95487.73;;;6.76;55.29
6851;BME280;3464;42.728;23.296;2023-01-30T02:37:04;95479.17;;;6.83;54.86
6851;BME280;3464;42.728;23.296;2023-01-30T02:39:33;95477.85;;;6.96;54.62
6851;BME280;3464;42.728;23.296;2023-01-30T02:42:00;95477.04;;;6.66;55.08
6851;BME280;3464;42.728;23.296;2023-01-30T02:44:29;95477.72;;;6.76;55.06
6851;BME280;3464;42.728;23.296;2023-01-30T02:47:00;95473.70;;;7.32;54.28
6851;BME280;3464;42.728;23.296;2023-01-30T02:49:41;95472.23;;;7.06;54.16
6851;BME280;3464;42.728;23.296;2023-01-30T02:52:08;95468.18;;;6.77;54.40
6851;BME280;3464;42.728;23.296;2023-01-30T02:54:34;95465.24;;;6.46;55.25
6851;BME280;3464;42.728;23.296;2023-01-30T02:57:01;95474.21;;;6.39;55.03
6851;BME280;3464;42.728;23.296;2023-01-30T02:59:32;95463.69;;;6.20;55.44
6851;BME280;3464;42.728;23.296;2023-01-30T03:04:47;95475.63;;;6.60;54.92
6851;BME280;3464;42.728;23.296;2023-01-30T03:07:26;95470.36;;;6.65;54.15
6851;BME280;3464;42.728;23.296;2023-01-30T03:10:06;95473.22;;;6.34;54.79
6851;BME280;3464;42.728;23.296;2023-01-30T03:12:41;95468.33;;;6.67;54.89
6851;BME280;3464;42.728;23.296;2023-01-30T03:15:11;95458.53;;;6.92;54.20
6851;BME280;3464;42.728;23.296;2023-01-30T03:17:36;95464.14;;;6.67;54.87
6851;BME280;3464;42.728;23.296;2023-01-30T03:20:03;95456.38;;;6.73;54.83
6851;BME280;3464;42.728;23.296;2023-01-30T03:22:29;95454.71;;;6.57;54.76
6851;BME280;3464;42.728;23.296;2023-01-30T03:24:56;95447.31;;;6.77;54.62
6851;BME280;3464;42.728;23.296;2023-01-30T03:27:23;95444.79;;;6.60;54.98
6851;BME280;3464;42.728;23.296;2023-01-30T03:29:50;95441.36;;;6.73;54.75
6851;BME280;3464;42.728;23.296;2023-01-30T03:32:16;95437.91;;;6.52;54.54
6851;BME280;3464;42.728;23.296;2023-01-30T03:34:44;95430.33;;;6.50;54.81
6851;BME280;3464;42.728;23.296;2023-01-30T03:37:11;95437.36;;;6.32;54.62
6851;BME280;3464;42.728;23.296;2023-01-30T03:39:38;95435.90;;;6.25;55.04
6851;BME280;3464;42.728;23.296;2023-01-30T03:42:05;95432.96;;;6.39;54.36
6851;BME280;3464;42.728;23.296;2023-01-30T03:44:31;95440.03;;;6.24;55.01
6851;BME280;3464;42.728;23.296;2023-01-30T03:46:58;95433.48;;;6.27;55.10
6851;BME280;3464;42.728;23.296;2023-01-30T03:49:24;95435.67;;;6.31;54.92
6851;BME280;3464;42.728;23.296;2023-01-30T03:51:51;95429.42;;;6.47;55.00
6851;BME280;3464;42.728;23.296;2023-01-30T03:54:18;95422.23;;;6.58;54.57
6851;BME280;3464;42.728;23.296;2023-01-30T03:56:45;95429.30;;;6.13;55.13
6851;BME280;3464;42.728;23.296;2023-01-30T03:59:11;95428.64;;;5.89;56.06
6851;BME280;3464;42.728;23.296;2023-01-30T04:01:38;95429.34;;;6.14;55.95
6851;BME280;3464;42.728;23.296;2023-01-30T04:04:05;95431.52;;;5.74;56.46
6851;BME280;3464;42.728;23.296;2023-01-30T04:06:31;95433.11;;;5.72;56.71
6851;BME280;3464;42.728;23.296;2023-01-30T04:08:58;95426.92;;;6.01;55.90
6851;BME280;3464;42.728;23.296;2023-01-30T04:11:24;95414.05;;;6.33;55.45
6851;BME280;3464;42.728;23.296;2023-01-30T04:13:51;95418.83;;;6.24;55.45
6851;BME280;3464;42.728;23.296;2023-01-30T04:16:19;95419.44;;;6.79;54.68
6851;BME280;3464;42.728;23.296;2023-01-30T04:18:45;95418.86;;;6.41;55.35
6851;BME280;3464;42.728;23.296;2023-01-30T04:21:11;95419.19;;;6.54;55.03
6851;BME280;3464;42.728;23.296;2023-01-30T04:23:38;95418.36;;;6.23;55.34
6851;BME280;3464;42.728;23.296;2023-01-30T04:26:05;95421.50;;;6.01;55.93
6851;BME280;3464;42.728;23.296;2023-01-30T04:28:31;95419.09;;;6.04;56.24
6851;BME280;3464;42.728;23.296;2023-01-30T04:30:58;95419.94;;;6.35;55.89
6851;BME280;3464;42.728;23.296;2023-01-30T04:33:24;95420.47;;;6.08;55.99
6851;BME280;3464;42.728;23.296;2023-01-30T04:35:52;95416.89;;;6.00;56.07
6851;BME280;3464;42.728;23.296;2023-01-30T04:38:18;95418.03;;;5.82;56.88
6851;BME280;3464;42.728;23.296;2023-01-30T04:40:48;95420.86;;;6.09;56.65
6851;BME280;3464;42.728;23.296;2023-01-30T04:43:14;95418.86;;;6.73;55.41
6851;BME280;3464;42.728;23.296;2023-01-30T04:45:42;95419.53;;;6.20;56.53
6851;BME280;3464;42.728;23.296;2023-01-30T04:48:09;95413.85;;;6.73;55.36
6851;BME280;3464;42.728;23.296;2023-01-30T04:50:36;95408.18;;;6.63;55.83
6851;BME280;3464;42.728;23.296;2023-01-30T04:53:02;95403.61;;;6.32;56.35
6851;BME280;3464;42.728;23.296;2023-01-30T04:55:29;95400.75;;;6.50;55.89
6851;BME280;3464;42.728;23.296;2023-01-30T04:57:56;95399.38;;;6.61;55.78
6851;BME280;3464;42.728;23.296;2023-01-30T05:00:22;95400.21;;;6.30;56.16
6851;BME280;3464;42.728;23.296;2023-01-30T05:02:49;95397.59;;;6.73;55.33
6851;BME280;3464;42.728;23.296;2023-01-30T05:05:16;95397.05;;;6.36;55.88
6851;BME280;3464;42.728;23.296;2023-01-30T05:07:43;95393.94;;;6.44;55.65
6851;BME280;3464;42.728;23.296;2023-01-30T05:10:10;95396.98;;;6.19;56.26
6851;BME280;3464;42.728;23.296;2023-01-30T05:12:37;95398.78;;;6.38;56.05
6851;BME280;3464;42.728;23.296;2023-01-30T05:15:03;95393.00;;;6.40;55.93
6851;BME280;3464;42.728;23.296;2023-01-30T05:17:30;95399.08;;;6.82;55.30
6851;BME280;3464;42.728;23.296;2023-01-30T05:19:57;95395.97;;;6.43;55.76
6851;BME280;3464;42.728;23.296;2023-01-30T05:22:23;95398.16;;;6.46;55.77
6851;BME280;3464;42.728;23.296;2023-01-30T05:24:50;95400.91;;;6.25;56.23
6851;BME280;3464;42.728;23.296;2023-01-30T05:27:17;95408.20;;;6.48;56.16
6851;BME280;3464;42.728;23.296;2023-01-30T05:29:43;95409.11;;;6.51;55.95
6851;BME280;3464;42.728;23.296;2023-01-30T05:32:12;95400.95;;;6.12;56.90
6851;BME280;3464;42.728;23.296;2023-01-30T05:34:39;95405.91;;;6.55;56.29
6851;BME280;3464;42.728;23.296;2023-01-30T05:37:06;95407.59;;;6.10;57.09
6851;BME280;3464;42.728;23.296;2023-01-30T05:39:33;95406.33;;;6.24;56.99
6851;BME280;3464;42.728;23.296;2023-01-30T05:42:00;95387.70;;;5.57;57.86
6851;BME280;3464;42.728;23.296;2023-01-30T05:44:26;95406.38;;;6.26;57.33
6851;BME280;3464;42.728;23.296;2023-01-30T05:46:54;95410.86;;;6.08;57.54
6851;BME280;3464;42.728;23.296;2023-01-30T05:49:21;95415.38;;;6.05;57.83
6851;BME280;3464;42.728;23.296;2023-01-30T05:51:48;95412.17;;;6.72;56.74
6851;BME280;3464;42.728;23.296;2023-01-30T05:54:16;95414.75;;;6.92;56.56
6851;BME280;3464;42.728;23.296;2023-01-30T05:56:42;95413.63;;;7.14;56.09
6851;BME280;3464;42.728;23.296;2023-01-30T05:59:10;95411.73;;;7.05;55.88
6851;BME280;3464;42.728;23.296;2023-01-30T06:01:36;95419.98;;;7.01;55.95
6851;BME280;3464;42.728;23.296;2023-01-30T06:04:02;95421.56;;;6.49;57.09
6851;BME280;3464;42.728;23.296;2023-01-30T06:06:30;95423.23;;;6.82;56.31
6851;BME280;3464;42.728;23.296;2023-01-30T06:08:57;95422.82;;;6.50;56.76
6851;BME280;3464;42.728;23.296;2023-01-30T06:11:24;95413.84;;;6.57;56.51
6851;BME280;3464;42.728;23.296;2023-01-30T06:13:50;95409.89;;;6.98;55.92
6851;BME280;3464;42.728;23.296;2023-01-30T06:16:18;95418.38;;;6.70;56.41
6851;BME280;3464;42.728;23.296;2023-01-30T06:18:44;95405.64;;;6.61;56.04
6851;BME280;3464;42.728;23.296;2023-01-30T06:21:14;95418.09;;;6.14;57.36
6851;BME280;3464;42.728;23.296;2023-01-30T06:23:40;95413.83;;;6.24;56.69
6851;BME280;3464;42.728;23.296;2023-01-30T06:26:06;95412.45;;;6.21;56.71
6851;BME280;3464;42.728;23.296;2023-01-30T06:28:33;95410.56;;;6.58;56.44
6851;BME280;3464;42.728;23.296;2023-01-30T06:30:59;95409.67;;;6.40;56.39
6851;BME280;3464;42.728;23.296;2023-01-30T06:33:26;95412.41;;;6.82;56.05
6851;BME280;3464;42.728;23.296;2023-01-30T06:35:53;95414.31;;;6.12;56.60
6851;BME280;3464;42.728;23.296;2023-01-30T06:38:19;95407.31;;;6.30;56.21
6851;BME280;3464;42.728;23.296;2023-01-30T06:40:47;95407.91;;;6.37;57.04
6851;BME280;3464;42.728;23.296;2023-01-30T06:43:13;95412.11;;;6.23;56.71
6851;BME280;3464;42.728;23.296;2023-01-30T06:45:39;95413.34;;;6.86;55.81
6851;BME280;3464;42.728;23.296;2023-01-30T06:48:06;95406.59;;;7.17;55.28
6851;BME280;3464;42.728;23.296;2023-01-30T06:50:32;95408.33;;;6.69;55.75
6851;BME280;3464;42.728;23.296;2023-01-30T06:53:01;95406.91;;;6.47;56.27
6851;BME280;3464;42.728;23.296;2023-01-30T06:55:27;95421.63;;;6.67;56.00
6851;BME280;3464;42.728;23.296;2023-01-30T06:58:01;95416.03;;;6.28;56.14
6851;BME280;3464;42.728;23.296;2023-01-30T07:00:26;95413.45;;;5.97;56.54
6851;BME280;3464;42.728;23.296;2023-01-30T07:02:53;95417.54;;;6.08;56.71
6851;BME280;3464;42.728;23.296;2023-01-30T07:05:20;95417.48;;;6.69;55.73
6851;BME280;3464;42.728;23.296;2023-01-30T07:07:47;95416.66;;;6.85;55.03
6851;BME280;3464;42.728;23.296;2023-01-30T07:10:14;95417.61;;;6.41;55.39
6851;BME280;3464;42.728;23.296;2023-01-30T07:12:41;95428.70;;;6.20;55.95
6851;BME280;3464;42.728;23.296;2023-01-30T07:15:08;95424.72;;;6.75;55.28
6851;BME280;3464;42.728;23.296;2023-01-30T07:17:34;95419.38;;;7.11;54.07
6851;BME280;3464;42.728;23.296;2023-01-30T07:20:01;95419.95;;;6.67;55.25
6851;BME280;3464;42.728;23.296;2023-01-30T07:22:27;95420.33;;;6.98;55.02
6851;BME280;3464;42.728;23.296;2023-01-30T07:24:54;95421.78;;;6.90;54.96
6851;BME280;3464;42.728;23.296;2023-01-30T07:27:21;95420.42;;;6.85;54.80
6851;BME280;3464;42.728;23.296;2023-01-30T07:29:47;95432.84;;;6.82;55.32
6851;BME280;3464;42.728;23.296;2023-01-30T07:32:14;95425.41;;;7.36;54.57
6851;BME280;3464;42.728;23.296;2023-01-30T07:34:40;95441.28;;;7.19;54.98
6851;BME280;3464;42.728;23.296;2023-01-30T07:37:07;95444.96;;;7.16;55.07
6851;BME280;3464;42.728;23.296;2023-01-30T07:39:33;95443.27;;;7.32;54.77
6851;BME280;3464;42.728;23.296;2023-01-30T07:42:00;95441.80;;;7.41;54.61
6851;BME280;3464;42.728;23.296;2023-01-30T07:44:27;95438.34;;;7.19;55.33
6851;BME280;3464;42.728;23.296;2023-01-30T07:46:53;95436.55;;;7.13;55.38
6851;BME280;3464;42.728;23.296;2023-01-30T07:49:20;95437.34;;;6.95;55.20
6851;BME280;3464;42.728;23.296;2023-01-30T07:51:46;95437.70;;;6.76;56.15
6851;BME280;3464;42.728;23.296;2023-01-30T07:54:13;95433.53;;;7.26;55.53
6851;BME280;3464;42.728;23.296;2023-01-30T07:56:39;95429.36;;;7.10;55.58
6851;BME280;3464;42.728;23.296;2023-01-30T07:59:06;95421.45;;;7.10;55.44
6851;BME280;3464;42.728;23.296;2023-01-30T08:01:32;95422.45;;;7.00;55.64
6851;BME280;3464;42.728;23.296;2023-01-30T08:03:59;95416.54;;;7.32;55.18
6851;BME280;3464;42.728;23.296;2023-01-30T08:06:26;95412.55;;;7.04;55.75
6851;BME280;3464;42.728;23.296;2023-01-30T08:08:53;95410.56;;;7.44;54.68
6851;BME280;3464;42.728;23.296;2023-01-30T08:11:21;95409.59;;;7.20;54.96
6851;BME280;3464;42.728;23.296;2023-01-30T08:13:48;95406.95;;;7.51;54.48
6851;BME280;3464;42.728;23.296;2023-01-30T08:16:14;95409.53;;;7.92;54.18
6851;BME280;3464;42.728;23.296;2023-01-30T08:18:41;95402.02;;;7.92;53.46
6851;BME280;3464;42.728;23.296;2023-01-30T08:21:07;95398.68;;;7.53;53.62
6851;BME280;3464;42.728;23.296;2023-01-30T08:23:34;95397.69;;;7.28;54.31
6851;BME280;3464;42.728;23.296;2023-01-30T08:26:01;95400.55;;;7.43;53.92
6851;BME280;3464;42.728;23.296;2023-01-30T08:28:27;95393.72;;;8.15;53.49
6851;BME280;3464;42.728;23.296;2023-01-30T08:30:53;95388.02;;;7.81;53.65
6851;BME280;3464;42.728;23.296;2023-01-30T08:33:21;95391.18;;;8.14;53.38
6851;BME280;3464;42.728;23.296;2023-01-30T08:35:47;95384.17;;;8.18;52.93
6851;BME280;3464;42.728;23.296;2023-01-30T08:38:14;95382.09;;;8.20;52.80
6851;BME280;3464;42.728;23.296;2023-01-30T08:40:40;95381.91;;;8.52;52.50
6851;BME280;3464;42.728;23.296;2023-01-30T08:43:07;95376.64;;;8.60;52.21
6851;BME280;3464;42.728;23.296;2023-01-30T08:45:33;95378.56;;;8.76;50.89
6851;BME280;3464;42.728;23.296;2023-01-30T08:48:02;95382.19;;;9.17;50.54
6851;BME280;3464;42.728;23.296;2023-01-30T08:50:28;95381.45;;;8.08;51.29
6851;BME280;3464;42.728;23.296;2023-01-30T08:52:54;95379.03;;;8.54;51.50
6851;BME280;3464;42.728;23.296;2023-01-30T08:55:21;95378.34;;;7.40;52.47
6851;BME280;3464;42.728;23.296;2023-01-30T08:57:47;95376.09;;;7.32;52.76
6851;BME280;3464;42.728;23.296;2023-01-30T09:00:22;95368.45;;;7.84;52.50
6851;BME280;3464;42.728;23.296;2023-01-30T09:02:51;95366.87;;;7.50;52.94
6851;BME280;3464;42.728;23.296;2023-01-30T09:05:15;95361.14;;;7.74;52.65
6851;BME280;3464;42.728;23.296;2023-01-30T09:07:42;95367.67;;;7.68;52.78
6851;BME280;3464;42.728;23.296;2023-01-30T09:10:09;95360.91;;;7.64;52.78
6851;BME280;3464;42.728;23.296;2023-01-30T09:12:36;95366.45;;;7.68;52.85
6851;BME280;3464;42.728;23.296;2023-01-30T09:15:03;95361.43;;;8.10;52.06
6851;BME280;3464;42.728;23.296;2023-01-30T09:17:30;95362.25;;;7.88;52.36
6851;BME280;3464;42.728;23.296;2023-01-30T09:19:57;95360.45;;;7.81;52.83
6851;BME280;3464;42.728;23.296;2023-01-30T09:22:23;95356.69;;;7.81;52.03
6851;BME280;3464;42.728;23.296;2023-01-30T09:24:50;95357.73;;;7.33;53.02
6851;BME280;3464;42.728;23.296;2023-01-30T09:27:16;95359.55;;;7.79;52.76
6851;BME280;3464;42.728;23.296;2023-01-30T09:29:43;95358.83;;;7.85;52.14
6851;BME280;3464;42.728;23.296;2023-01-30T09:32:09;95362.25;;;7.88;52.26
6851;BME280;3464;42.728;23.296;2023-01-30T09:34:36;95353.79;;;7.44;52.44
6851;BME280;3464;42.728;23.296;2023-01-30T09:37:02;95356.72;;;7.43;52.82
6851;BME280;3464;42.728;23.296;2023-01-30T09:39:29;95361.25;;;8.01;51.99
6851;BME280;3464;42.728;23.296;2023-01-30T09:44:56;95341.44;;;8.12;51.61
6851;BME280;3464;42.728;23.296;2023-01-30T09:50:15;95343.47;;;7.68;52.19
6851;BME280;3464;42.728;23.296;2023-01-30T09:53:17;95341.19;;;7.21;53.14
6851;BME280;3464;42.728;23.296;2023-01-30T09:55:26;95343.96;;;7.33;53.44
6851;BME280;3464;42.728;23.296;2023-01-30T09:57:52;95337.28;;;7.52;52.58
6851;BME280;3464;42.728;23.296;2023-01-30T10:03:38;95321.10;;;7.38;52.83
6851;BME280;3464;42.728;23.296;2023-01-30T10:05:52;95317.77;;;7.38;52.91
6851;BME280;3464;42.728;23.296;2023-01-30T10:08:57;95319.52;;;7.42;52.85
6851;BME280;3464;42.728;23.296;2023-01-30T10:11:24;95307.77;;;7.79;51.92
6851;BME280;3464;42.728;23.296;2023-01-30T10:13:51;95300.33;;;8.26;51.26
6851;BME280;3464;42.728;23.296;2023-01-30T10:16:23;95296.23;;;7.87;51.25
6851;BME280;3464;42.728;23.296;2023-01-30T10:19:12;95293.37;;;8.33;50.91
6851;BME280;3464;42.728;23.296;2023-01-30T10:21:42;95291.01;;;7.55;51.46
6851;BME280;3464;42.728;23.296;2023-01-30T10:24:13;95281.58;;;7.64;50.91
6851;BME280;3464;42.728;23.296;2023-01-30T10:26:36;95275.77;;;7.44;50.50
6851;BME280;3464;42.728;23.296;2023-01-30T10:29:07;95279.62;;;6.92;51.69
6851;BME280;3464;42.728;23.296;2023-01-30T10:31:35;95277.94;;;7.29;51.53
6851;BME280;3464;42.728;23.296;2023-01-30T10:34:04;95267.92;;;7.70;50.83
6851;BME280;3464;42.728;23.296;2023-01-30T10:36:35;95264.77;;;7.58;50.53
6851;BME280;3464;42.728;23.296;2023-01-30T10:39:01;95263.15;;;7.81;49.90
6851;BME280;3464;42.728;23.296;2023-01-30T10:41:34;95258.56;;;8.05;49.49
6851;BME280;3464;42.728;23.296;2023-01-30T10:44:02;95251.06;;;7.21;50.66
6851;BME280;3464;42.728;23.296;2023-01-30T10:46:34;95243.13;;;7.20;51.24
6851;BME280;3464;42.728;23.296;2023-01-30T10:48:59;95240.94;;;8.01;50.21
6851;BME280;3464;42.728;23.296;2023-01-30T10:51:31;95233.02;;;8.24;49.69
6851;BME280;3464;42.728;23.296;2023-01-30T10:54:13;95226.09;;;8.11;49.79
6851;BME280;3464;42.728;23.296;2023-01-30T10:59:35;95212.14;;;8.24;49.60
6851;BME280;3464;42.728;23.296;2023-01-30T11:01:59;95205.11;;;8.55;49.49
6851;BME280;3464;42.728;23.296;2023-01-30T11:04:30;95196.48;;;8.39;49.34
6851;BME280;3464;42.728;23.296;2023-01-30T11:06:56;95195.20;;;8.38;49.08
6851;BME280;3464;42.728;23.296;2023-01-30T11:09:23;95193.49;;;7.88;50.55
6851;BME280;3464;42.728;23.296;2023-01-30T11:11:51;95180.19;;;8.38;49.81
6851;BME280;3464;42.728;23.296;2023-01-30T11:14:17;95169.04;;;9.09;48.36
6851;BME280;3464;42.728;23.296;2023-01-30T11:16:47;95165.11;;;9.30;47.80
6851;BME280;3464;42.728;23.296;2023-01-30T11:19:15;95172.80;;;8.47;48.50
6851;BME280;3464;42.728;23.296;2023-01-30T11:21:41;95154.72;;;8.15;48.35
6851;BME280;3464;42.728;23.296;2023-01-30T11:24:15;95160.78;;;7.79;49.38
6851;BME280;3464;42.728;23.296;2023-01-30T11:26:40;95160.92;;;8.37;49.13
6851;BME280;3464;42.728;23.296;2023-01-30T11:29:26;95147.50;;;8.09;48.39
6851;BME280;3464;42.728;23.296;2023-01-30T11:31:52;95152.68;;;8.19;48.92
6851;BME280;3464;42.728;23.296;2023-01-30T11:34:19;95144.76;;;8.20;48.37
6851;BME280;3464;42.728;23.296;2023-01-30T11:36:45;95146.39;;;7.92;48.80
6851;BME280;3464;42.728;23.296;2023-01-30T11:39:21;95146.28;;;8.36;48.61
6851;BME280;3464;42.728;23.296;2023-01-30T11:42:02;95137.98;;;9.02;47.17
6851;BME280;3464;42.728;23.296;2023-01-30T11:44:32;95132.70;;;8.52;47.89
6851;BME280;3464;42.728;23.296;2023-01-30T11:46:59;95119.55;;;8.67;47.90
6851;BME280;3464;42.728;23.296;2023-01-30T11:49:26;95112.76;;;8.30;48.46
6851;BME280;3464;42.728;23.296;2023-01-30T11:51:52;95107.97;;;8.40;48.00
6851;BME280;3464;42.728;23.296;2023-01-30T11:54:28;95104.31;;;8.25;48.44
6851;BME280;3464;42.728;23.296;2023-01-30T11:56:51;95099.10;;;8.39;48.69
6851;BME280;3464;42.728;23.296;2023-01-30T11:59:22;95096.09;;;7.82;48.69
6851;BME280;3464;42.728;23.296;2023-01-30T12:01:46;95091.00;;;8.28;47.96
6851;BME280;3464;42.728;23.296;2023-01-30T12:04:14;95084.16;;;8.48;47.73
6851;BME280;3464;42.728;23.296;2023-01-30T12:06:41;95086.02;;;8.32;48.17
6851;BME280;3464;42.728;23.296;2023-01-30T12:11:46;95075.70;;;9.06;47.06
6851;BME280;3464;42.728;23.296;2023-01-30T12:16:55;95063.05;;;8.97;47.38
6851;BME280;3464;42.728;23.296;2023-01-30T12:19:30;95063.16;;;8.13;48.09
6851;BME280;3464;42.728;23.296;2023-01-30T12:21:57;95062.87;;;8.84;47.98
6851;BME280;3464;42.728;23.296;2023-01-30T12:24:27;95054.22;;;8.95;47.24
6851;BME280;3464;42.728;23.296;2023-01-30T12:26:54;95055.20;;;9.08;47.06
6851;BME280;3464;42.728;23.296;2023-01-30T12:29:28;95042.85;;;9.26;46.83
6851;BME280;3464;42.728;23.296;2023-01-30T12:32:03;95041.14;;;8.85;47.11
6851;BME280;3464;42.728;23.296;2023-01-30T12:34:27;95039.87;;;8.47;47.62
6851;BME280;3464;42.728;23.296;2023-01-30T12:53:01;95016.39;;;9.19;46.74
6851;BME280;3464;42.728;23.296;2023-01-30T12:55:52;95009.17;;;9.09;46.82
6851;BME280;3464;42.728;23.296;2023-01-30T12:58:24;95006.28;;;8.71;47.38
6851;BME280;3464;42.728;23.296;2023-01-30T13:01:24;95011.20;;;8.64;48.10
6851;BME280;3464;42.728;23.296;2023-01-30T13:03:58;95016.18;;;8.01;48.55
6851;BME280;3464;42.728;23.296;2023-01-30T13:06:36;95008.56;;;8.53;48.08
6851;BME280;3464;42.728;23.296;2023-01-30T13:09:11;95009.88;;;8.24;48.30
6851;BME280;3464;42.728;23.296;2023-01-30T13:11:57;95007.72;;;8.89;47.58
6851;BME280;3464;42.728;23.296;2023-01-30T13:14:45;95009.98;;;8.33;48.66
6851;BME280;3464;42.728;23.296;2023-01-30T13:17:33;95006.29;;;8.38;48.07
6851;BME280;3464;42.728;23.296;2023-01-30T13:20:03;95008.39;;;7.81;49.01
6851;BME280;3464;42.728;23.296;2023-01-30T13:22:38;94998.20;;;8.26;48.55
6851;BME280;3464;42.728;23.296;2023-01-30T13:25:11;95001.26;;;7.79;48.86
6851;BME280;3464;42.728;23.296;2023-01-30T13:27:33;94999.11;;;8.03;48.80
6851;BME280;3464;42.728;23.296;2023-01-30T13:29:59;94988.87;;;7.88;48.72
6851;BME280;3464;42.728;23.296;2023-01-30T13:32:31;94983.34;;;7.82;49.01
6851;BME280;3464;42.728;23.296;2023-01-30T13:34:56;94975.98;;;8.94;47.80
6851;BME280;3464;42.728;23.296;2023-01-30T13:37:24;94971.14;;;8.69;47.22
6851;BME280;3464;42.728;23.296;2023-01-30T13:39:54;94971.57;;;8.70;47.54
6851;BME280;3464;42.728;23.296;2023-01-30T13:42:26;94970.30;;;8.70;47.51
6851;BME280;3464;42.728;23.296;2023-01-30T13:44:51;94963.98;;;8.66;47.41
6851;BME280;3464;42.728;23.296;2023-01-30T13:47:26;94966.61;;;8.79;47.55
6851;BME280;3464;42.728;23.296;2023-01-30T13:52:42;94960.32;;;8.38;48.04
6851;BME280;3464;42.728;23.296;2023-01-30T13:56:00;94955.25;;;8.34;48.37
6851;BME280;3464;42.728;23.296;2023-01-30T14:00:53;94967.25;;;7.95;48.62
6851;BME280;3464;42.728;23.296;2023-01-30T14:03:31;94958.56;;;7.71;49.40
6851;BME280;3464;42.728;23.296;2023-01-30T14:05:58;94954.66;;;7.90;49.27
6851;BME280;3464;42.728;23.296;2023-01-30T14:08:31;94958.82;;;7.90;49.14
6851;BME280;3464;42.728;23.296;2023-01-30T14:10:56;94953.91;;;8.25;48.78
6851;BME280;3464;42.728;23.296;2023-01-30T14:13:23;94961.99;;;8.39;48.35
6851;BME280;3464;42.728;23.296;2023-01-30T14:15:56;94960.06;;;7.90;48.79
6851;BME280;3464;42.728;23.296;2023-01-30T14:18:27;94956.39;;;7.37;49.27
6851;BME280;3464;42.728;23.296;2023-01-30T14:21:09;94966.48;;;7.17;49.52